createdAt,value
2022-10-08T00:01:53.424Z,10.13
2022-10-08T00:04:59.558Z,5.80
2022-10-08T00:08:05.726Z,9.10
2022-10-08T00:11:16.666Z,6.13
2022-10-08T00:14:23.550Z,4.40
2022-10-08T00:17:29.919Z,5.13
2022-10-08T00:20:36.012Z,58.33
2022-10-08T00:23:42.419Z,16.47
2022-10-08T00:26:49.639Z,6.70
2022-10-08T00:29:55.635Z,5.37
2022-10-08T00:33:02.596Z,6.13
2022-10-08T00:36:10.391Z,10.10
2022-10-08T00:39:17.855Z,7.53
2022-10-08T00:42:26.222Z,6.23
2022-10-08T00:45:32.639Z,10.93
2022-10-08T00:48:38.747Z,5.60
2022-10-08T00:51:49.901Z,8.63
2022-10-08T00:54:55.942Z,8.37
2022-10-08T00:58:09.303Z,7.00
2022-10-08T01:01:15.751Z,7.37
2022-10-08T01:04:22.231Z,8.63
2022-10-08T01:07:33.580Z,6.27
2022-10-08T01:10:48.548Z,8.10
2022-10-08T01:14:02.483Z,9.20
2022-10-08T01:17:17.139Z,9.47
2022-10-08T01:20:37.337Z,5.87
2022-10-08T01:24:22.278Z,7.63
2022-10-08T01:27:34.399Z,7.63
2022-10-08T01:30:46.531Z,7.27
2022-10-08T01:33:58.292Z,10.80
2022-10-08T01:37:06.819Z,4.87
2022-10-08T01:40:19.279Z,7.33
2022-10-08T01:43:30.359Z,11.67
2022-10-08T01:46:41.156Z,8.07
2022-10-08T01:49:52.561Z,6.23
2022-10-08T01:53:03.207Z,7.90
2022-10-08T01:56:12.117Z,7.03
2022-10-08T01:59:24.184Z,5.20
2022-10-08T02:02:30.752Z,4.90
2022-10-08T02:05:40.658Z,4.90
2022-10-08T02:08:47.040Z,4.03
2022-10-08T02:11:53.587Z,4.93
2022-10-08T02:15:02.369Z,10.33
2022-10-08T02:18:13.856Z,6.73
2022-10-08T02:21:25.144Z,5.97
2022-10-08T02:24:38.175Z,5.40
2022-10-08T02:27:55.411Z,5.67
2022-10-08T02:31:10.323Z,4.23
2022-10-08T02:34:21.354Z,4.73
2022-10-08T02:37:32.910Z,6.03
2022-10-08T02:40:42.919Z,5.67
2022-10-08T02:43:52.213Z,5.03
2022-10-08T02:47:02.923Z,7.37
2022-10-08T02:50:13.461Z,9.03
2022-10-08T02:53:20.647Z,4.27
2022-10-08T02:56:32.526Z,11.07
2022-10-08T02:59:39.307Z,31.80
2022-10-08T03:02:53.641Z,17.73
2022-10-08T03:06:03.454Z,10.67
2022-10-08T03:09:12.232Z,6.10
2022-10-08T03:12:18.698Z,9.90
2022-10-08T03:15:25.515Z,10.47
2022-10-08T03:18:33.824Z,13.23
2022-10-08T03:21:42.690Z,14.23
2022-10-08T03:24:48.780Z,13.00
2022-10-08T03:27:55.156Z,9.43
2022-10-08T03:31:06.156Z,10.77
2022-10-08T03:34:13.884Z,6.67
2022-10-08T03:37:20.400Z,6.80
2022-10-08T03:40:26.454Z,6.20
2022-10-08T03:43:34.035Z,7.63
2022-10-08T03:46:40.674Z,27.00
2022-10-08T03:49:48.081Z,14.80
2022-10-08T03:52:54.100Z,20.97
2022-10-08T03:56:03.120Z,7.20
2022-10-08T03:59:09.585Z,33.17
2022-10-08T04:02:16.334Z,12.23
2022-10-08T04:05:24.263Z,11.23
2022-10-08T04:08:30.563Z,12.97
2022-10-08T04:11:36.881Z,19.97
2022-10-08T04:14:43.183Z,32.70
2022-10-08T04:17:49.205Z,27.03
2022-10-08T04:20:59.887Z,21.77
2022-10-08T04:24:06.316Z,20.70
2022-10-08T04:27:12.338Z,17.33
2022-10-08T04:30:18.936Z,19.90
2022-10-08T04:33:24.929Z,35.73
2022-10-08T04:36:33.562Z,17.83
2022-10-08T04:39:39.691Z,22.17
2022-10-08T04:42:46.009Z,17.40
2022-10-08T04:45:52.302Z,11.83
2022-10-08T04:48:58.510Z,20.33
2022-10-08T04:52:05.931Z,22.37
2022-10-08T04:55:12.090Z,22.37
2022-10-08T04:58:18.614Z,23.57
2022-10-08T05:01:26.033Z,57.43
2022-10-08T05:04:32.638Z,39.57
2022-10-08T05:07:40.479Z,38.30
2022-10-08T05:10:50.038Z,30.07
2022-10-08T05:13:57.725Z,22.90
2022-10-08T05:17:04.120Z,17.80
2022-10-08T05:20:10.905Z,31.30
2022-10-08T05:23:18.392Z,43.97
2022-10-08T05:26:46.498Z,27.23
2022-10-08T05:29:52.712Z,15.57
2022-10-08T05:32:58.938Z,9.03
2022-10-08T05:36:06.837Z,22.87
2022-10-08T05:39:14.595Z,26.93
2022-10-08T05:42:20.832Z,22.30
2022-10-08T05:45:27.298Z,15.93
2022-10-08T05:48:33.370Z,13.73
2022-10-08T05:51:39.651Z,16.47
2022-10-08T05:54:47.591Z,12.67
2022-10-08T05:57:53.804Z,13.93
2022-10-08T06:01:01.212Z,13.20
2022-10-08T06:04:09.097Z,11.67
2022-10-08T06:07:15.531Z,9.80
2022-10-08T06:10:23.279Z,8.83
2022-10-08T06:13:29.547Z,10.73
2022-10-08T06:16:36.358Z,12.03
2022-10-08T06:19:42.679Z,11.83
2022-10-08T06:22:49.404Z,15.67
2022-10-08T06:25:57.090Z,15.23
2022-10-08T06:29:03.179Z,13.43
2022-10-08T06:32:09.564Z,11.43
2022-10-08T06:35:15.632Z,11.60
2022-10-08T06:38:22.037Z,11.93
2022-10-08T06:41:33.404Z,8.47
2022-10-08T06:44:39.675Z,5.97
2022-10-08T06:47:45.793Z,6.63
2022-10-08T06:50:59.782Z,12.27
2022-10-08T06:54:08.312Z,9.60
2022-10-08T06:57:16.358Z,8.23
2022-10-08T07:00:22.135Z,11.20
2022-10-08T07:03:28.199Z,11.20
2022-10-08T07:06:34.692Z,6.17
2022-10-08T07:09:41.142Z,7.03
2022-10-08T07:12:48.898Z,7.50
2022-10-08T07:16:02.674Z,7.43
2022-10-08T07:19:09.232Z,9.50
2022-10-08T07:22:15.510Z,7.27
2022-10-08T07:25:21.830Z,7.77
2022-10-08T07:28:32.111Z,5.03
2022-10-08T07:31:39.427Z,5.87
2022-10-08T07:34:45.878Z,5.03
2022-10-08T07:37:52.323Z,14.33
2022-10-08T07:40:58.601Z,4.17
2022-10-08T07:44:07.152Z,6.30
2022-10-08T07:47:13.623Z,6.63
2022-10-08T07:50:19.703Z,5.57
2022-10-08T07:53:25.764Z,5.70
2022-10-08T07:56:33.209Z,7.77
2022-10-08T07:59:40.886Z,7.47
2022-10-08T08:02:49.620Z,8.53
2022-10-08T08:06:02.077Z,3.73
2022-10-08T08:09:08.040Z,5.97
2022-10-08T08:12:14.408Z,5.33
2022-10-08T08:15:22.036Z,8.03
2022-10-08T08:18:30.673Z,4.03
2022-10-08T08:21:39.233Z,5.13
2022-10-08T08:24:45.474Z,3.30
2022-10-08T08:27:51.860Z,3.97
2022-10-08T08:31:08.416Z,4.43
2022-10-08T08:34:16.774Z,4.67
2022-10-08T08:37:22.865Z,9.37
2022-10-08T08:40:29.330Z,13.80
2022-10-08T08:43:35.695Z,31.97
2022-10-08T08:46:47.750Z,33.63
2022-10-08T08:49:56.467Z,3.70
2022-10-08T08:53:03.850Z,3.83
2022-10-08T08:56:14.360Z,7.80
2022-10-08T08:59:29.493Z,4.77
2022-10-08T09:02:45.594Z,4.53
2022-10-08T09:05:56.823Z,4.43
2022-10-08T09:09:09.351Z,5.17
2022-10-08T09:12:21.145Z,3.80
2022-10-08T09:15:34.063Z,4.07
2022-10-08T09:18:49.121Z,3.97
2022-10-08T09:21:55.442Z,4.13
2022-10-08T09:25:05.179Z,5.10
2022-10-08T09:28:11.595Z,2.57
2022-10-08T09:31:26.605Z,7.97
2022-10-08T09:34:35.127Z,3.83
2022-10-08T09:37:41.453Z,2.90
2022-10-08T09:41:01.602Z,5.50
2022-10-08T09:44:19.816Z,3.00
2022-10-08T09:47:28.166Z,4.23
2022-10-08T09:50:38.271Z,2.70
2022-10-08T09:53:47.040Z,4.00
2022-10-08T09:56:56.068Z,2.57
2022-10-08T10:00:05.923Z,3.13
2022-10-08T10:03:18.752Z,4.60
2022-10-08T10:06:33.387Z,2.90
2022-10-08T10:09:45.652Z,2.20
2022-10-08T10:12:56.387Z,2.00
2022-10-08T10:16:06.132Z,2.33
2022-10-08T10:19:18.681Z,2.00
2022-10-08T10:22:33.713Z,2.20
2022-10-08T10:25:48.140Z,2.70
2022-10-08T10:28:58.531Z,4.90
2022-10-08T10:32:14.407Z,2.90
2022-10-08T10:35:25.810Z,2.17
2022-10-08T10:38:42.958Z,2.43
2022-10-08T10:41:56.311Z,3.63
2022-10-08T10:45:05.465Z,4.57
2022-10-08T10:48:14.871Z,2.07
2022-10-08T10:51:36.598Z,1.77
2022-10-08T10:55:01.881Z,1.73
2022-10-08T10:58:23.475Z,1.90
2022-10-08T11:01:41.064Z,2.43
2022-10-08T11:05:01.726Z,2.27
2022-10-08T11:08:18.929Z,2.00
2022-10-08T11:11:36.787Z,2.13
2022-10-08T11:14:54.934Z,7.27
2022-10-08T11:18:21.799Z,5.17
2022-10-08T11:21:40.355Z,2.47
2022-10-08T11:25:07.210Z,2.30
2022-10-08T11:28:24.190Z,205.97
2022-10-08T11:31:40.563Z,5.93
2022-10-08T11:34:53.280Z,1.83
2022-10-08T11:38:08.140Z,2.20
2022-10-08T11:41:21.211Z,3.20
2022-10-08T11:44:30.371Z,2.00
2022-10-08T11:47:47.926Z,2.03
2022-10-08T11:50:54.314Z,2.43
2022-10-08T11:54:14.740Z,4.07
2022-10-08T11:57:24.923Z,2.50
2022-10-08T12:00:40.395Z,6.97
2022-10-08T12:04:02.551Z,3.77
2022-10-08T12:07:21.992Z,1.70
2022-10-08T12:10:34.245Z,3.83
2022-10-08T12:13:40.548Z,1.97
2022-10-08T12:17:12.538Z,2.13
2022-10-08T12:20:21.422Z,1.50
2022-10-08T12:23:40.295Z,2.07
2022-10-08T12:27:19.866Z,2.70
2022-10-08T12:30:49.639Z,3.10
2022-10-08T12:33:59.803Z,2.23
2022-10-08T12:37:16.536Z,5.83
2022-10-08T12:40:36.022Z,3.70
2022-10-08T12:43:49.455Z,2.00
2022-10-08T12:47:06.030Z,2.57
2022-10-08T12:50:38.057Z,2.73
2022-10-08T12:53:46.262Z,3.10
2022-10-08T12:56:53.720Z,2.30
2022-10-08T13:00:01.965Z,2.90
2022-10-08T13:03:15.219Z,2.57
2022-10-08T13:06:33.716Z,3.57
2022-10-08T13:09:40.335Z,2.67
2022-10-08T13:13:00.254Z,11.83
2022-10-08T13:16:08.932Z,2.20
2022-10-08T13:19:19.731Z,3.10
2022-10-08T13:22:28.014Z,2.33
2022-10-08T13:25:41.042Z,2.87
2022-10-08T13:28:59.889Z,2.30
2022-10-08T13:32:19.791Z,2.50
2022-10-08T13:35:26.268Z,10.63
2022-10-08T13:38:37.184Z,3.03
2022-10-08T13:41:52.474Z,3.93
2022-10-08T13:44:59.995Z,4.27
2022-10-08T13:48:11.175Z,5.10
2022-10-08T13:51:17.252Z,2.20
2022-10-08T13:54:26.563Z,3.07
2022-10-08T13:57:32.732Z,3.37
2022-10-08T14:00:40.218Z,2.13
2022-10-08T14:03:46.553Z,3.27
2022-10-08T14:06:56.783Z,4.93
2022-10-08T14:10:04.990Z,2.90
2022-10-08T14:13:13.863Z,3.43
2022-10-08T14:16:20.153Z,2.93
2022-10-08T14:19:26.250Z,2.57
2022-10-08T14:22:38.852Z,2.70
2022-10-08T14:25:47.758Z,12.07
2022-10-08T14:28:53.567Z,2.37
2022-10-08T14:32:00.105Z,2.60
2022-10-08T14:35:07.611Z,7.13
2022-10-08T14:38:13.972Z,2.80
2022-10-08T14:41:21.857Z,6.43
2022-10-08T14:44:27.838Z,4.33
2022-10-08T14:47:34.212Z,4.67
2022-10-08T14:50:40.346Z,5.97
2022-10-08T14:53:46.816Z,2.80
2022-10-08T14:56:54.338Z,3.23
2022-10-08T15:00:00.681Z,4.37
2022-10-08T15:03:06.987Z,6.93
2022-10-08T15:06:13.380Z,9.37
2022-10-08T15:09:19.686Z,9.87
2022-10-08T15:12:27.199Z,10.37
2022-10-08T15:15:32.960Z,18.23
2022-10-08T15:18:39.144Z,86.27
2022-10-08T15:21:45.323Z,43.57
2022-10-08T15:24:51.428Z,21.87
2022-10-08T15:27:59.160Z,209.17
2022-10-08T15:31:08.148Z,24.60
2022-10-08T15:34:17.763Z,23.37
2022-10-08T15:37:23.987Z,49.60
2022-10-08T15:40:31.804Z,18.80
2022-10-08T15:43:39.559Z,14.57
2022-10-08T15:46:45.973Z,13.10
2022-10-08T15:49:51.991Z,22.40
2022-10-08T15:52:58.051Z,22.70
2022-10-08T15:56:05.310Z,19.03
2022-10-08T15:59:12.790Z,27.83
2022-10-08T16:02:18.935Z,21.07
2022-10-08T16:05:25.048Z,19.70
2022-10-08T16:08:32.421Z,12.47
2022-10-08T16:11:39.162Z,27.73
2022-10-08T16:14:46.759Z,23.83
2022-10-08T16:17:52.742Z,63.50
2022-10-08T16:21:02.458Z,76.80
2022-10-08T16:24:08.860Z,74.90
2022-10-08T16:27:15.069Z,64.20
2022-10-08T16:30:22.891Z,47.27
2022-10-08T16:33:29.609Z,50.37
2022-10-08T16:36:37.453Z,110.33
2022-10-08T16:39:43.671Z,106.83
2022-10-08T16:42:49.735Z,97.23
2022-10-08T16:45:57.458Z,99.17
2022-10-08T16:49:05.999Z,112.07
2022-10-08T16:52:12.165Z,111.87
2022-10-08T16:55:18.544Z,88.47
2022-10-08T16:58:24.613Z,81.90
2022-10-08T17:01:33.982Z,92.87
2022-10-08T17:04:40.110Z,96.83
2022-10-08T17:07:46.302Z,85.53
2022-10-08T17:10:52.545Z,76.57
2022-10-08T17:13:59.491Z,88.07
2022-10-08T17:17:07.329Z,82.63
2022-10-08T17:20:13.051Z,93.07
2022-10-08T17:23:19.383Z,93.10
2022-10-08T17:26:27.094Z,66.87
2022-10-08T17:29:33.452Z,36.30
2022-10-08T17:32:41.354Z,44.27
2022-10-08T17:35:47.709Z,61.43
2022-10-08T17:38:56.534Z,61.17
2022-10-08T17:42:06.980Z,30.97
2022-10-08T17:45:13.459Z,40.77
2022-10-08T17:48:21.191Z,59.70
2022-10-08T17:51:29.213Z,57.03
2022-10-08T17:54:35.555Z,71.63
2022-10-08T17:57:41.647Z,59.93
2022-10-08T18:00:48.105Z,56.67
2022-10-08T18:03:58.011Z,103.67
2022-10-08T18:07:04.190Z,70.03
2022-10-08T18:10:11.412Z,71.63
2022-10-08T18:13:17.511Z,79.70
2022-10-08T18:16:25.375Z,114.60
2022-10-08T18:19:33.201Z,113.17
2022-10-08T18:22:39.340Z,100.17
2022-10-08T18:25:46.521Z,67.10
2022-10-08T18:28:56.421Z,40.37
2022-10-08T18:32:02.734Z,43.20
2022-10-08T18:35:11.914Z,43.90
2022-10-08T18:38:18.142Z,40.53
2022-10-08T18:41:26.298Z,90.00
2022-10-08T18:44:32.412Z,82.17
2022-10-08T18:47:38.600Z,61.47
2022-10-08T18:50:46.393Z,43.53
2022-10-08T18:53:53.871Z,45.40
2022-10-08T18:57:00.444Z,35.20
2022-10-08T19:00:07.046Z,46.20
2022-10-08T19:03:13.160Z,38.23
2022-10-08T19:06:23.276Z,32.00
2022-10-08T19:09:29.631Z,37.63
2022-10-08T19:12:35.787Z,37.27
2022-10-08T19:15:42.606Z,66.07
2022-10-08T19:18:54.396Z,44.27
2022-10-08T19:22:02.117Z,35.27
2022-10-08T19:25:08.779Z,23.53
2022-10-08T19:28:14.774Z,36.47
2022-10-08T19:31:24.208Z,42.50
2022-10-08T19:34:30.520Z,46.10
2022-10-08T19:37:38.614Z,50.73
2022-10-08T19:40:44.732Z,44.80
2022-10-08T19:43:50.909Z,33.60
2022-10-08T19:46:57.063Z,43.20
2022-10-08T19:50:03.701Z,41.30
2022-10-08T19:53:11.180Z,39.83
2022-10-08T19:56:18.270Z,21.50
2022-10-08T19:59:24.437Z,20.80
2022-10-08T20:02:30.591Z,23.20
2022-10-08T20:05:36.684Z,49.90
2022-10-08T20:08:44.227Z,30.73
2022-10-08T20:11:50.289Z,48.70
2022-10-08T20:14:56.340Z,20.13
2022-10-08T20:18:02.812Z,26.50
2022-10-08T20:21:11.327Z,28.67
2022-10-08T20:24:19.927Z,18.00
2022-10-08T20:27:26.239Z,21.90
2022-10-08T20:30:32.607Z,30.20
2022-10-08T20:33:40.719Z,24.63
2022-10-08T20:36:47.810Z,32.57
2022-10-08T20:39:55.215Z,19.70
2022-10-08T20:43:01.568Z,33.70
2022-10-08T20:46:10.463Z,37.33
2022-10-08T20:49:16.388Z,50.70
2022-10-08T20:52:22.972Z,67.90
2022-10-08T20:55:30.732Z,50.47
2022-10-08T20:58:37.590Z,39.93
2022-10-08T21:01:43.926Z,24.20
2022-10-08T21:04:49.911Z,18.17
2022-10-08T21:07:56.232Z,19.27
2022-10-08T21:11:04.696Z,20.90
2022-10-08T21:14:11.765Z,17.80
2022-10-08T21:17:17.962Z,23.00
2022-10-08T21:20:23.754Z,32.70
2022-10-08T21:23:29.923Z,24.73
2022-10-08T21:26:39.067Z,32.00
2022-10-08T21:29:45.038Z,33.57
2022-10-08T21:32:51.375Z,30.93
2022-10-08T21:35:58.334Z,71.03
2022-10-08T21:39:06.772Z,56.77
2022-10-08T21:42:14.384Z,42.83
2022-10-08T21:45:20.282Z,62.57
2022-10-08T21:48:27.919Z,43.33
2022-10-08T21:51:34.952Z,37.03
2022-10-08T21:54:41.016Z,24.30
2022-10-08T21:57:48.671Z,15.70
2022-10-08T22:00:55.161Z,20.20
2022-10-08T22:04:02.987Z,19.77
2022-10-08T22:07:08.956Z,10.70
2022-10-08T22:10:15.391Z,13.53
2022-10-08T22:13:23.503Z,15.97
2022-10-08T22:16:29.913Z,11.30
2022-10-08T22:19:36.976Z,11.00
2022-10-08T22:22:43.333Z,9.23
2022-10-08T22:25:54.407Z,10.23
2022-10-08T22:29:02.384Z,11.03
2022-10-08T22:32:08.738Z,28.20
2022-10-08T22:35:15.262Z,30.37
2022-10-08T22:38:21.553Z,23.43
2022-10-08T22:41:29.770Z,32.33
2022-10-08T22:44:37.210Z,17.30
2022-10-08T22:47:43.151Z,12.17
2022-10-08T22:50:49.343Z,22.40
2022-10-08T22:53:56.050Z,24.83
2022-10-08T22:57:02.191Z,19.70
2022-10-08T23:00:11.677Z,16.50
2022-10-08T23:03:17.913Z,10.47
2022-10-08T23:06:25.298Z,7.93
2022-10-08T23:09:31.443Z,9.33
2022-10-08T23:12:37.487Z,13.77
2022-10-08T23:15:45.010Z,22.60
2022-10-08T23:18:55.756Z,26.60
2022-10-08T23:22:01.716Z,27.70
2022-10-08T23:25:08.815Z,15.70
2022-10-08T23:28:14.978Z,17.33
2022-10-08T23:31:24.035Z,10.40
2022-10-08T23:34:30.151Z,15.47
2022-10-08T23:37:36.375Z,22.10
2022-10-08T23:40:42.402Z,11.97
2022-10-08T23:43:51.551Z,7.87
2022-10-08T23:46:59.252Z,11.20
2022-10-08T23:50:05.590Z,10.43
2022-10-08T23:53:11.822Z,22.70
2022-10-08T23:56:18.545Z,16.77
2022-10-08T23:59:24.865Z,18.80
